Terminal Aerodrome Forecast
Issued by NWS Charleston, WV

Current Version | Previous Version | Text Only | Print | Product List | Glossary Off
Versions: 1 2 3 4 5 6 7 8 9 10 11 12 13 14 15 16 17 18 19 20 21 22 23 24 25 26 27 28

000
FTUS41 KRLX 020859 AAA
TAFBKW
TAF AMD
KBKW 020859Z 0209/0306 36005KT 1/4SM FG VV002
     FM021300 VRB03KT 1 1/2SM BR OVC003
     FM021500 33004KT P6SM BKN008
     FM021900 34004KT P6SM BKN015
     FM030200 05004KT P6SM BKN030
     FM030500 10004KT P6SM OVC020=

USA.gov is the U.S. government's official web portal to all federal, state and local government web resources and services.